This is the latest recevied weather packets stored in our database for station/object K0SNA. If no packets are shown the sender has not sent any weather packets the latest 10 day(s).
| Time | Temp. | Humidity | Pressure | Rain* | Wind** | Luminosity | Snow |
|---|---|---|---|---|---|---|---|
| 1778003388 | 9.44° C | 38% | 1011.5 hPa | 0 mm | - | 323 W/m² | - |
| 1778003086 | 8.89° C | 39% | 1011.6 hPa | 0 mm | - | 318 W/m² | - |
| 1778002782 | 10° C | 39% | 1011.6 hPa | 0 mm | - | 358 W/m² | - |
| 1778002478 | 10° C | 40% | 1011.4 hPa | 0 mm | - | 290 W/m² | - |
| 1778002175 | 8.89° C | 40% | 1011.7 hPa | 0 mm | - | 785 W/m² | - |
| 1778001874 | 8.89° C | 40% | 1011.6 hPa | 0 mm | - | 314 W/m² | - |
| 1778001572 | 8.33° C | 41% | 1011.6 hPa | 0 mm | - | 408 W/m² | - |
| 1778001270 | 8.33° C | 41% | 1011.5 hPa | 0 mm | - | 219 W/m² | - |
| 1778000966 | 8.33° C | 40% | 1011.7 hPa | 0 mm | - | 264 W/m² | - |
| 1778000663 | 8.33° C | 40% | 1011.5 hPa | 0 mm | - | 481 W/m² | - |
| 1778000359 | 8.33° C | 41% | 1011.4 hPa | 0 mm | - | 242 W/m² | - |
| 1778000055 | 8.33° C | 40% | 1011.6 hPa | 0 mm | - | 309 W/m² | - |
| 1777999750 | 8.33° C | 41% | 1011.9 hPa | 0 mm | - | 246 W/m² | - |
| 1777999447 | 8.33° C | 39% | 1011.6 hPa | 0 mm | - | 914 W/m² | - |
| 1777999145 | 8.33° C | 39% | 1011.7 hPa | 0 mm | - | 414 W/m² | - |
| 1777998844 | 9.44° C | 38% | 1011.6 hPa | 0 mm | - | 210 W/m² | - |
| 1777998542 | 8.33° C | 41% | 1011.6 hPa | 0 mm | - | 682 W/m² | - |
| 1777998238 | 8.89° C | 39% | 1011.6 hPa | 0 mm | - | 183 W/m² | - |
| 1777997935 | 8.89° C | 39% | 1011.6 hPa | 0 mm | - | 211 W/m² | - |
| 1777997632 | 8.33° C | 40% | 1011.7 hPa | 0 mm | - | 744 W/m² | - |
| 1777997329 | 7.78° C | 42% | 1011.5 hPa | 0 mm | - | 323 W/m² | - |
| 1777997027 | 8.33° C | 41% | 1011.6 hPa | 0 mm | - | 143 W/m² | - |
| 1777996723 | 7.22° C | 41% | 1011.7 hPa | 0 mm | - | 667 W/m² | - |
| 1777996419 | 7.78° C | 41% | 1011.4 hPa | 0 mm | - | 94 W/m² | - |
| 1777996116 | 8.33° C | 41% | 1011.7 hPa | 0 mm | - | 162 W/m² | - |
* Rain latest hour (hover to see other rain measurements)
** Current wind speed in m/s (hover to see current wind gust speed)